createdAt,value
2018-10-01T00:00:42.428Z,86.47
2018-10-01T00:01:42.418Z,85.90
2018-10-01T00:02:42.413Z,86.10
2018-10-01T00:03:42.408Z,86.47
2018-10-01T00:04:42.410Z,86.29
2018-10-01T00:05:42.402Z,86.33
2018-10-01T00:06:42.397Z,86.29
2018-10-01T00:07:42.392Z,86.33
2018-10-01T00:08:42.382Z,86.29
2018-10-01T00:09:42.381Z,85.71
2018-10-01T00:10:42.422Z,86.10
2018-10-01T00:11:42.372Z,86.14
2018-10-01T00:12:42.369Z,86.29
2018-10-01T00:13:42.356Z,86.00
2018-10-01T00:14:42.352Z,85.75
2018-10-01T00:15:42.350Z,85.85
2018-10-01T00:16:42.342Z,85.52
2018-10-01T00:17:42.346Z,85.75
2018-10-01T00:18:42.340Z,85.81
2018-10-01T00:19:42.333Z,85.94
2018-10-01T00:20:42.324Z,85.52
2018-10-01T00:21:42.315Z,85.75
2018-10-01T00:22:42.311Z,85.75
2018-10-01T00:23:42.310Z,85.81
2018-10-01T00:24:42.305Z,85.85
2018-10-01T00:25:42.295Z,85.94
2018-10-01T00:26:42.291Z,85.47
2018-10-01T00:27:42.286Z,85.81
2018-10-01T00:28:42.281Z,85.52
2018-10-01T00:29:42.281Z,85.81
2018-10-01T00:30:42.276Z,85.52
2018-10-01T00:31:42.271Z,85.71
2018-10-01T00:32:42.266Z,85.75
2018-10-01T00:33:42.255Z,86.10
2018-10-01T00:34:42.250Z,86.90
2018-10-01T00:35:42.245Z,87.34
2018-10-01T00:36:42.239Z,87.05
2018-10-01T00:37:42.239Z,87.24
2018-10-01T00:38:42.234Z,87.34
2018-10-01T00:39:42.225Z,87.43
2018-10-01T00:40:42.224Z,86.86
2018-10-01T00:41:42.219Z,87.34
2018-10-01T00:42:42.213Z,87.91
2018-10-01T00:43:42.211Z,87.34
2018-10-01T00:44:42.204Z,87.53
2018-10-01T00:45:42.193Z,87.62
2018-10-01T00:46:42.189Z,87.72
2018-10-01T00:47:42.183Z,88.01
2018-10-01T00:48:42.177Z,87.62
2018-10-01T00:49:42.179Z,88.29
2018-10-01T00:50:42.173Z,88.58
2018-10-01T00:51:42.170Z,88.68
2018-10-01T00:52:42.163Z,88.20
2018-10-01T00:53:42.152Z,88.68
2018-10-01T00:54:42.149Z,88.77
2018-10-01T00:55:42.147Z,88.96
2018-10-01T00:56:42.142Z,88.68
2018-10-01T00:57:42.131Z,88.68
2018-10-01T00:58:42.127Z,88.68
2018-10-01T00:59:42.124Z,89.15
2018-10-01T01:00:42.116Z,88.58
2018-10-01T01:01:42.115Z,88.20
2018-10-01T01:02:42.110Z,88.96
2018-10-01T01:03:42.105Z,88.29
2018-10-01T01:04:42.099Z,88.39
2018-10-01T01:05:42.095Z,88.48
2018-10-01T01:06:42.085Z,89.15
2018-10-01T01:07:42.079Z,88.87
2018-10-01T01:08:42.074Z,88.68
2018-10-01T01:09:42.074Z,88.77
2018-10-01T01:10:42.069Z,88.96
2018-10-01T01:11:42.061Z,89.34
2018-10-01T01:12:42.053Z,89.73
2018-10-01T01:13:42.053Z,89.34
2018-10-01T01:14:42.051Z,89.11
2018-10-01T01:15:42.042Z,89.25
2018-10-01T01:16:42.036Z,89.34
2018-10-01T01:17:42.027Z,89.06
2018-10-01T01:18:42.022Z,89.87
2018-10-01T01:19:42.017Z,89.25
2018-10-01T01:20:42.012Z,89.87
2018-10-01T01:21:42.010Z,89.73
2018-10-01T01:22:42.006Z,89.15
2018-10-01T01:23:42.001Z,89.20
2018-10-01T01:24:41.995Z,89.49
2018-10-01T01:25:41.986Z,89.59
2018-10-01T01:26:41.980Z,89.20
2018-10-01T01:27:41.980Z,89.49
2018-10-01T01:28:41.973Z,89.20
2018-10-01T01:29:41.964Z,89.01
2018-10-01T01:30:41.959Z,89.68
2018-10-01T01:31:41.953Z,89.49
2018-10-01T01:32:41.946Z,90.25
2018-10-01T01:33:41.945Z,89.11
2018-10-01T01:34:41.940Z,88.73
2018-10-01T01:35:41.936Z,89.01
2018-10-01T01:36:41.929Z,88.82
2018-10-01T01:37:41.919Z,89.20
2018-10-01T01:38:41.915Z,89.49
2018-10-01T01:39:41.911Z,89.78
2018-10-01T01:40:41.903Z,89.49
2018-10-01T01:41:41.903Z,89.78
2018-10-01T01:42:41.898Z,89.49
2018-10-01T01:43:41.887Z,89.49
2018-10-01T01:44:41.882Z,89.78
2018-10-01T01:45:41.881Z,89.20
2018-10-01T01:46:41.877Z,89.78
2018-10-01T01:47:41.869Z,89.01
2018-10-01T01:48:41.865Z,89.59
2018-10-01T01:49:41.855Z,89.49
2018-10-01T01:50:41.849Z,89.87
2018-10-01T01:51:41.845Z,90.06
2018-10-01T01:52:41.838Z,89.68
2018-10-01T01:53:41.838Z,89.97
2018-10-01T01:54:41.833Z,90.06
2018-10-01T01:55:41.826Z,89.68
2018-10-01T01:56:41.821Z,89.20
2018-10-01T01:57:41.811Z,89.49
2018-10-01T01:58:41.805Z,89.39
2018-10-01T01:59:41.804Z,89.49
2018-10-01T02:00:41.799Z,89.78
2018-10-01T02:01:41.789Z,89.30
2018-10-01T02:02:41.783Z,89.39
2018-10-01T02:03:41.779Z,89.59
2018-10-01T02:04:41.772Z,89.59
2018-10-01T02:05:41.772Z,89.59
2018-10-01T02:06:41.767Z,90.25
2018-10-01T02:07:41.762Z,89.59
2018-10-01T02:08:41.755Z,89.39
2018-10-01T02:09:41.745Z,89.49
2018-10-01T02:10:41.739Z,89.68
2018-10-01T02:11:41.734Z,89.30
2018-10-01T02:12:41.729Z,89.87
2018-10-01T02:13:41.728Z,89.59
2018-10-01T02:14:41.722Z,89.49
2018-10-01T02:15:41.712Z,89.87
2018-10-01T02:16:41.705Z,89.49
2018-10-01T02:17:41.705Z,89.59
2018-10-01T02:18:41.700Z,89.49
2018-10-01T02:19:41.694Z,89.01
2018-10-01T02:20:41.688Z,89.20
2018-10-01T02:21:41.679Z,89.11
2018-10-01T02:22:41.673Z,89.20
2018-10-01T02:23:41.667Z,89.11
2018-10-01T02:24:41.661Z,89.11
2018-10-01T02:25:41.661Z,89.78
2018-10-01T02:26:41.656Z,89.68
2018-10-01T02:27:41.650Z,89.78
2018-10-01T02:28:41.643Z,89.30
2018-10-01T02:29:41.633Z,89.49
2018-10-01T02:30:41.628Z,89.49
2018-10-01T02:31:41.627Z,89.78
2018-10-01T02:32:41.620Z,89.87
2018-10-01T02:33:41.611Z,89.78
2018-10-01T02:34:41.612Z,89.83
2018-10-01T02:35:41.602Z,89.68
2018-10-01T02:36:41.594Z,89.49
2018-10-01T02:37:41.595Z,89.59
2018-10-01T02:38:41.590Z,89.59
2018-10-01T02:39:41.584Z,89.59
2018-10-01T02:40:41.578Z,89.49
2018-10-01T02:41:41.568Z,89.87
2018-10-01T02:42:41.561Z,89.68
2018-10-01T02:43:41.557Z,89.49
2018-10-01T02:44:41.551Z,89.64
2018-10-01T02:45:41.550Z,89.73
2018-10-01T02:46:41.544Z,89.73
2018-10-01T02:47:41.599Z,89.06
2018-10-01T02:48:41.529Z,89.73
2018-10-01T02:49:41.525Z,90.02
2018-10-01T02:50:41.521Z,89.64
2018-10-01T02:51:41.516Z,90.02
2018-10-01T02:52:41.508Z,89.54
2018-10-01T02:53:41.499Z,90.02
2018-10-01T02:54:41.493Z,89.35
2018-10-01T02:55:41.488Z,89.92
2018-10-01T02:56:41.482Z,89.35
2018-10-01T02:57:41.479Z,89.83
2018-10-01T02:58:41.475Z,90.11
2018-10-01T02:59:41.468Z,90.31
2018-10-01T03:00:41.461Z,90.69
2018-10-01T03:01:41.461Z,90.88
2018-10-01T03:02:41.446Z,91.02
2018-10-01T03:03:41.448Z,90.93
2018-10-01T03:04:41.439Z,91.12
2018-10-01T03:05:41.429Z,91.60
2018-10-01T03:06:41.422Z,91.41
2018-10-01T03:07:41.416Z,91.26
2018-10-01T03:08:41.410Z,91.12
2018-10-01T03:09:41.410Z,90.78
2018-10-01T03:10:41.410Z,90.88
2018-10-01T03:11:41.398Z,90.59
2018-10-01T03:12:41.392Z,91.07
2018-10-01T03:13:41.381Z,91.07
2018-10-01T03:14:41.375Z,91.50
2018-10-01T03:15:41.370Z,90.97
2018-10-01T03:16:41.361Z,91.55
2018-10-01T03:17:41.360Z,91.07
2018-10-01T03:18:41.356Z,91.16
2018-10-01T03:19:41.381Z,91.64
2018-10-01T03:20:41.338Z,90.97
2018-10-01T03:21:41.338Z,91.26
2018-10-01T03:22:41.331Z,91.55
2018-10-01T03:23:41.326Z,91.16
2018-10-01T03:24:41.360Z,91.64
2018-10-01T03:25:41.314Z,91.64
2018-10-01T03:26:41.305Z,91.02
2018-10-01T03:27:41.298Z,91.07
2018-10-01T03:28:41.291Z,91.26
2018-10-01T03:29:41.291Z,91.16
2018-10-01T03:30:41.285Z,91.07
2018-10-01T03:31:41.279Z,91.55
2018-10-01T03:32:41.272Z,91.26
2018-10-01T03:33:41.263Z,91.74
2018-10-01T03:34:41.256Z,91.83
2018-10-01T03:35:41.255Z,91.64
2018-10-01T03:36:41.257Z,91.07
2018-10-01T03:37:41.238Z,91.16
2018-10-01T03:38:41.232Z,91.07
2018-10-01T03:39:41.228Z,91.07
2018-10-01T03:40:41.220Z,91.16
2018-10-01T03:41:41.222Z,90.59
2018-10-01T03:42:41.215Z,91.36
2018-10-01T03:43:41.209Z,91.26
2018-10-01T03:44:41.206Z,91.16
2018-10-01T03:45:41.192Z,91.07
2018-10-01T03:46:41.187Z,91.07
2018-10-01T03:47:41.181Z,91.55
2018-10-01T03:48:41.173Z,91.36
2018-10-01T03:49:41.173Z,90.69
2018-10-01T03:50:41.168Z,90.88
2018-10-01T03:51:41.158Z,91.45
2018-10-01T03:52:41.151Z,91.36
2018-10-01T03:53:41.152Z,91.36
2018-10-01T03:54:41.144Z,91.16
2018-10-01T03:55:41.139Z,91.55
2018-10-01T03:56:41.132Z,91.26
2018-10-01T03:57:41.120Z,90.97
2018-10-01T03:58:41.116Z,91.26
2018-10-01T03:59:41.118Z,91.16
2018-10-01T04:00:41.104Z,90.69
2018-10-01T04:01:41.104Z,90.88
2018-10-01T04:02:41.097Z,91.36
2018-10-01T04:03:41.093Z,91.26
2018-10-01T04:04:41.090Z,91.36
2018-10-01T04:05:41.074Z,91.36
2018-10-01T04:06:41.071Z,91.36
2018-10-01T04:07:41.068Z,91.74
2018-10-01T04:08:41.112Z,91.45
2018-10-01T04:09:41.050Z,91.64
2018-10-01T04:10:41.044Z,91.36
2018-10-01T04:11:41.039Z,91.64
2018-10-01T04:12:41.032Z,91.07
2018-10-01T04:13:41.032Z,91.93
2018-10-01T04:14:41.029Z,92.12
2018-10-01T04:15:41.019Z,91.45
2018-10-01T04:16:41.016Z,92.02
2018-10-01T04:17:41.003Z,91.07
2018-10-01T04:18:40.997Z,90.97
2018-10-01T04:19:40.992Z,91.36
2018-10-01T04:20:40.986Z,91.16
2018-10-01T04:21:40.985Z,91.07
2018-10-01T04:22:41.040Z,91.64
2018-10-01T04:23:40.968Z,91.26
2018-10-01T04:24:40.961Z,91.36
2018-10-01T04:25:40.960Z,91.07
2018-10-01T04:26:40.964Z,91.45
2018-10-01T04:27:40.948Z,91.16
2018-10-01T04:28:40.941Z,91.07
2018-10-01T04:29:40.932Z,91.16
2018-10-01T04:30:40.926Z,91.16
2018-10-01T04:31:40.920Z,90.88
2018-10-01T04:32:40.914Z,91.26
2018-10-01T04:33:40.913Z,91.36
2018-10-01T04:34:40.906Z,91.45
2018-10-01T04:35:40.952Z,91.16
2018-10-01T04:36:40.896Z,91.16
2018-10-01T04:37:40.884Z,91.45
2018-10-01T04:38:40.879Z,91.45
2018-10-01T04:39:40.879Z,91.45
2018-10-01T04:40:40.919Z,92.12
2018-10-01T04:41:40.862Z,92.21
2018-10-01T04:42:40.857Z,91.74
2018-10-01T04:43:40.850Z,91.93
2018-10-01T04:44:40.844Z,92.02
2018-10-01T04:45:40.842Z,92.21
2018-10-01T04:46:40.866Z,91.64
2018-10-01T04:47:40.829Z,92.21
2018-10-01T04:48:40.825Z,91.83
2018-10-01T04:49:40.815Z,92.50
2018-10-01T04:50:40.809Z,92.21
2018-10-01T04:51:40.807Z,92.74
2018-10-01T04:52:40.796Z,92.41
2018-10-01T04:53:40.796Z,92.60
2018-10-01T04:54:40.790Z,92.50
2018-10-01T04:55:40.779Z,92.12
2018-10-01T04:56:40.774Z,92.41
2018-10-01T04:57:40.773Z,92.41
2018-10-01T04:58:40.888Z,91.98
2018-10-01T04:59:40.768Z,92.12
2018-10-01T05:00:40.753Z,92.41
2018-10-01T05:01:40.743Z,92.50
2018-10-01T05:02:40.739Z,91.93
2018-10-01T05:03:40.733Z,92.02
2018-10-01T05:04:40.726Z,92.12
2018-10-01T05:05:40.726Z,91.83
2018-10-01T05:06:40.719Z,92.21
2018-10-01T05:07:40.713Z,91.74
2018-10-01T05:08:40.707Z,92.12
2018-10-01T05:09:40.700Z,92.21
2018-10-01T05:10:40.691Z,91.45
2018-10-01T05:11:40.691Z,91.93
2018-10-01T05:12:40.683Z,91.83
2018-10-01T05:13:40.675Z,92.02
2018-10-01T05:14:40.694Z,91.69
2018-10-01T05:15:40.662Z,91.98
2018-10-01T05:16:40.655Z,92.02
2018-10-01T05:17:40.656Z,91.55
2018-10-01T05:18:40.650Z,91.41
2018-10-01T05:19:40.644Z,91.26
2018-10-01T05:20:40.639Z,91.12
2018-10-01T05:21:40.628Z,91.26
2018-10-01T05:22:40.621Z,91.12
2018-10-01T05:23:40.615Z,91.31
2018-10-01T05:24:40.610Z,91.60
2018-10-01T05:25:40.607Z,91.12
2018-10-01T05:26:40.602Z,90.83
2018-10-01T05:27:40.591Z,90.83
2018-10-01T05:28:40.585Z,91.21
2018-10-01T05:29:40.584Z,91.02
2018-10-01T05:30:40.579Z,91.21
2018-10-01T05:31:40.573Z,91.21
2018-10-01T05:32:40.567Z,91.60
2018-10-01T05:33:40.555Z,91.02
2018-10-01T05:34:40.549Z,91.21
2018-10-01T05:35:40.544Z,91.21
2018-10-01T05:36:40.538Z,91.12
2018-10-01T05:37:40.584Z,91.21
2018-10-01T05:38:40.531Z,91.60
2018-10-01T05:39:40.523Z,91.60
2018-10-01T05:40:40.517Z,91.41
2018-10-01T05:41:40.507Z,91.41
2018-10-01T05:42:40.501Z,91.50
2018-10-01T05:43:40.500Z,91.60
2018-10-01T05:44:40.492Z,91.60
2018-10-01T05:45:40.482Z,91.69
2018-10-01T05:46:40.476Z,91.12
2018-10-01T05:47:40.472Z,91.21
2018-10-01T05:48:40.464Z,91.50
2018-10-01T05:49:40.464Z,91.41
2018-10-01T05:50:40.457Z,91.50
2018-10-01T05:51:40.452Z,91.60
2018-10-01T05:52:40.444Z,91.21
2018-10-01T05:53:40.460Z,91.31
2018-10-01T05:54:40.429Z,91.12
2018-10-01T05:55:40.422Z,91.31
2018-10-01T05:56:40.415Z,91.50
2018-10-01T05:57:40.488Z,91.50
2018-10-01T05:58:40.408Z,90.73
2018-10-01T05:59:40.398Z,90.93
2018-10-01T06:00:40.391Z,90.93
2018-10-01T06:01:40.390Z,90.93
2018-10-01T06:02:40.384Z,90.93
2018-10-01T06:03:40.379Z,90.36
2018-10-01T06:04:40.388Z,91.02
2018-10-01T06:05:40.362Z,90.73
2018-10-01T06:06:40.357Z,90.64
2018-10-01T06:07:40.348Z,90.93
2018-10-01T06:08:40.342Z,90.64
2018-10-01T06:09:40.342Z,90.64
2018-10-01T06:10:40.336Z,90.36
2018-10-01T06:11:40.335Z,91.02
2018-10-01T06:12:40.326Z,90.55
2018-10-01T06:13:40.312Z,90.55
2018-10-01T06:14:40.306Z,90.93
2018-10-01T06:15:40.306Z,90.55
2018-10-01T06:16:40.299Z,90.64
2018-10-01T06:17:40.289Z,90.26
2018-10-01T06:18:40.283Z,90.83
2018-10-01T06:19:40.276Z,90.55
2018-10-01T06:20:40.291Z,90.59
2018-10-01T06:21:40.269Z,90.26
2018-10-01T06:22:40.264Z,90.40
2018-10-01T06:23:40.257Z,90.11
2018-10-01T06:24:40.253Z,90.21
2018-10-01T06:25:40.240Z,90.21
2018-10-01T06:26:40.235Z,90.02
2018-10-01T06:27:40.230Z,89.83
2018-10-01T06:28:40.224Z,89.73
2018-10-01T06:29:40.221Z,89.16
2018-10-01T06:30:40.217Z,89.45
2018-10-01T06:31:40.206Z,88.97
2018-10-01T06:32:40.200Z,88.87
2018-10-01T06:33:40.198Z,88.78
2018-10-01T06:34:40.197Z,89.06
2018-10-01T06:35:40.186Z,88.78
2018-10-01T06:36:40.179Z,88.78
2018-10-01T06:37:40.170Z,88.78
2018-10-01T06:38:40.168Z,88.40
2018-10-01T06:39:40.159Z,88.54
2018-10-01T06:40:40.152Z,88.91
2018-10-01T06:41:40.240Z,87.56
2018-10-01T06:42:40.146Z,85.16
2018-10-01T06:43:40.142Z,82.90
2018-10-01T06:44:40.139Z,79.88
2018-10-01T06:45:40.126Z,77.56
2018-10-01T06:46:40.122Z,74.90
2018-10-01T06:47:40.122Z,73.31
2018-10-01T06:48:40.116Z,71.58
2018-10-01T06:49:40.108Z,70.01
2018-10-01T06:50:40.108Z,68.90
2018-10-01T06:51:40.103Z,67.19
2018-10-01T06:52:40.097Z,65.98
2018-10-01T06:53:40.099Z,64.18
2018-10-01T06:54:40.097Z,63.34
2018-10-01T06:55:40.096Z,61.48
2018-10-01T06:56:40.094Z,60.45
2018-10-01T06:57:40.088Z,59.68
2018-10-01T06:58:40.095Z,59.80
2018-10-01T06:59:40.098Z,59.42
2018-10-01T07:00:40.084Z,58.58
2018-10-01T07:01:40.090Z,57.71
2018-10-01T07:02:40.093Z,56.96
2018-10-01T07:03:40.086Z,57.09
2018-10-01T07:04:40.085Z,55.57
2018-10-01T07:05:40.122Z,54.83
2018-10-01T07:06:40.092Z,54.08
2018-10-01T07:07:40.102Z,52.82
2018-10-01T07:08:40.095Z,52.17
2018-10-01T07:09:40.090Z,51.52
2018-10-01T07:10:40.092Z,51.35
2018-10-01T07:11:40.364Z,50.12
2018-10-01T07:12:40.096Z,49.27
2018-10-01T07:13:40.104Z,48.52
2018-10-01T07:14:40.106Z,47.45
2018-10-01T07:15:40.108Z,47.06
2018-10-01T07:16:40.111Z,46.19
2018-10-01T07:17:40.109Z,45.87
2018-10-01T07:18:40.114Z,46.28
2018-10-01T07:19:40.121Z,46.19
2018-10-01T07:20:40.124Z,45.80
2018-10-01T07:21:40.124Z,45.51
2018-10-01T07:22:40.217Z,45.14
2018-10-01T07:23:40.132Z,44.95
2018-10-01T07:24:40.135Z,44.65
2018-10-01T07:25:40.144Z,45.24
2018-10-01T07:26:40.155Z,44.56
2018-10-01T07:27:40.154Z,44.34
2018-10-01T07:28:40.158Z,44.85
2018-10-01T07:29:40.157Z,44.00
2018-10-01T07:30:40.161Z,43.92
2018-10-01T07:31:40.166Z,43.61
2018-10-01T07:32:40.171Z,43.44
2018-10-01T07:33:40.178Z,43.05
2018-10-01T07:34:40.184Z,42.85
2018-10-01T07:35:40.185Z,42.97
2018-10-01T07:36:40.188Z,42.60
2018-10-01T07:37:40.199Z,42.00
2018-10-01T07:38:40.204Z,41.53
2018-10-01T07:39:40.210Z,41.13
2018-10-01T07:40:40.213Z,41.22
2018-10-01T07:41:40.214Z,41.28
2018-10-01T07:42:40.220Z,42.03
2018-10-01T07:43:40.226Z,43.06
2018-10-01T07:44:40.236Z,43.19
2018-10-01T07:45:40.243Z,44.81
2018-10-01T07:46:40.260Z,46.22
2018-10-01T07:47:40.252Z,48.06
2018-10-01T07:48:40.256Z,48.71
2018-10-01T07:49:40.269Z,49.49
2018-10-01T07:50:40.364Z,50.21
2018-10-01T07:51:40.272Z,49.32
2018-10-01T07:52:40.292Z,48.00
2018-10-01T07:53:40.286Z,46.11
2018-10-01T07:54:40.285Z,45.10
2018-10-01T07:55:40.287Z,45.05
2018-10-01T07:56:40.290Z,45.25
2018-10-01T07:57:40.302Z,45.56
2018-10-01T07:58:40.304Z,45.27
2018-10-01T07:59:40.466Z,45.48
2018-10-01T08:00:40.316Z,44.95
2018-10-01T08:01:40.314Z,43.82
2018-10-01T08:02:40.404Z,43.09
2018-10-01T08:03:40.324Z,42.04
2018-10-01T08:04:40.329Z,41.34
2018-10-01T08:05:40.338Z,40.85
2018-10-01T08:06:40.347Z,40.08
2018-10-01T08:07:40.344Z,39.90
2018-10-01T08:08:40.433Z,39.80
2018-10-01T08:09:40.361Z,39.24
2018-10-01T08:10:40.416Z,38.67
2018-10-01T08:11:40.379Z,38.20
2018-10-01T08:12:40.379Z,38.30
2018-10-01T08:13:40.385Z,37.62
2018-10-01T08:14:40.455Z,37.04
2018-10-01T08:15:40.402Z,37.15
2018-10-01T08:16:40.403Z,36.76
2018-10-01T08:17:40.412Z,36.49
2018-10-01T08:18:40.419Z,36.19
2018-10-01T08:19:40.427Z,36.02
2018-10-01T08:20:40.440Z,35.53
2018-10-01T08:21:40.436Z,35.64
2018-10-01T08:22:40.446Z,35.55
2018-10-01T08:23:40.550Z,35.35
2018-10-01T08:24:40.465Z,34.96
2018-10-01T08:25:40.471Z,34.94
2018-10-01T08:26:40.601Z,35.10
2018-10-01T08:27:40.486Z,35.57
2018-10-01T08:28:40.492Z,36.08
2018-10-01T08:29:40.597Z,36.00
2018-10-01T08:30:40.515Z,35.80
2018-10-01T08:31:40.524Z,35.66
2018-10-01T08:32:40.546Z,35.36
2018-10-01T08:33:40.535Z,35.14
2018-10-01T08:34:40.545Z,35.67
2018-10-01T08:35:40.556Z,36.22
2018-10-01T08:36:40.563Z,37.13
2018-10-01T08:37:40.577Z,36.53
2018-10-01T08:38:40.726Z,37.08
2018-10-01T08:39:40.590Z,38.03
2018-10-01T08:40:40.597Z,38.48
2018-10-01T08:41:40.610Z,39.67
2018-10-01T08:42:40.619Z,41.02
2018-10-01T08:43:40.626Z,42.26
2018-10-01T08:44:40.635Z,42.81
2018-10-01T08:45:40.637Z,42.46
2018-10-01T08:46:40.646Z,41.78
2018-10-01T08:47:40.662Z,41.94
2018-10-01T08:48:40.660Z,42.38
2018-10-01T08:49:40.672Z,42.67
2018-10-01T08:50:40.680Z,43.31
2018-10-01T08:51:40.694Z,43.38
2018-10-01T08:52:40.694Z,44.40
2018-10-01T08:53:40.695Z,45.74
2018-10-01T08:54:40.703Z,46.32
2018-10-01T08:55:40.713Z,47.26
2018-10-01T08:56:40.718Z,47.72
2018-10-01T08:57:40.721Z,48.30
2018-10-01T08:58:40.726Z,48.37
2018-10-01T08:59:40.731Z,48.76
2018-10-01T09:00:40.735Z,49.02
2018-10-01T09:01:40.745Z,49.63
2018-10-01T09:02:40.834Z,49.55
2018-10-01T09:03:40.756Z,49.10
2018-10-01T09:04:40.762Z,48.52
2018-10-01T09:05:40.761Z,48.42
2018-10-01T09:06:40.811Z,48.25
2018-10-01T09:07:40.770Z,47.41
2018-10-01T09:08:40.775Z,46.84
2018-10-01T09:09:40.782Z,46.36
2018-10-01T09:10:40.787Z,45.44
2018-10-01T09:11:40.786Z,44.17
2018-10-01T09:12:40.791Z,42.93
2018-10-01T09:13:40.803Z,41.42
2018-10-01T09:14:40.881Z,40.19
2018-10-01T09:15:40.812Z,38.46
2018-10-01T09:16:40.813Z,38.79
2018-10-01T09:17:40.815Z,37.55
2018-10-01T09:18:40.823Z,36.31
2018-10-01T09:19:40.828Z,35.72
2018-10-01T09:20:40.854Z,35.45
2018-10-01T09:21:40.895Z,34.97
2018-10-01T09:22:40.853Z,34.81
2018-10-01T09:23:40.859Z,34.03
2018-10-01T09:24:40.865Z,32.97
2018-10-01T09:25:40.869Z,32.50
2018-10-01T09:26:40.968Z,31.88
2018-10-01T09:27:40.890Z,32.52
2018-10-01T09:28:40.899Z,33.09
2018-10-01T09:29:40.905Z,33.41
2018-10-01T09:30:40.912Z,33.30
2018-10-01T09:31:40.922Z,34.18
2018-10-01T09:32:40.990Z,34.09
2018-10-01T09:33:40.946Z,34.05
2018-10-01T09:34:40.955Z,35.46
2018-10-01T09:35:40.965Z,35.75
2018-10-01T09:36:40.973Z,36.24
2018-10-01T09:37:40.979Z,36.94
2018-10-01T09:38:41.030Z,38.06
2018-10-01T09:39:40.996Z,39.88
2018-10-01T09:40:41.101Z,40.99
2018-10-01T09:41:41.016Z,42.28
2018-10-01T09:42:41.026Z,43.68
2018-10-01T09:43:41.028Z,44.60
2018-10-01T09:44:41.035Z,46.17
2018-10-01T09:45:41.046Z,46.17
2018-10-01T09:46:41.054Z,44.49
2018-10-01T09:47:41.065Z,43.18
2018-10-01T09:48:41.067Z,42.35
2018-10-01T09:49:41.067Z,40.85
2018-10-01T09:50:41.077Z,39.86
2018-10-01T09:51:41.082Z,39.26
2018-10-01T09:52:41.088Z,39.20
2018-10-01T09:53:41.121Z,40.58
2018-10-01T09:54:41.106Z,42.07
2018-10-01T09:55:41.111Z,43.40
2018-10-01T09:56:41.228Z,44.63
2018-10-01T09:57:41.118Z,45.98
2018-10-01T09:58:41.236Z,46.92
2018-10-01T09:59:41.136Z,47.58
2018-10-01T10:00:41.341Z,48.54
2018-10-01T10:01:41.142Z,49.17
2018-10-01T10:02:41.146Z,48.20
2018-10-01T10:03:41.152Z,47.02
2018-10-01T10:04:41.166Z,45.42
2018-10-01T10:05:41.169Z,45.28
2018-10-01T10:06:41.171Z,46.03
2018-10-01T10:07:41.176Z,46.58
2018-10-01T10:08:41.293Z,47.24
2018-10-01T10:09:41.184Z,47.87
2018-10-01T10:10:41.184Z,49.65
2018-10-01T10:11:41.190Z,51.56
2018-10-01T10:12:41.194Z,54.87
2018-10-01T10:13:41.201Z,58.35
2018-10-01T10:14:41.332Z,62.74
2018-10-01T10:15:41.206Z,67.70
2018-10-01T10:16:41.334Z,69.07
2018-10-01T10:17:41.215Z,71.92
2018-10-01T10:18:41.219Z,73.41
2018-10-01T10:19:41.221Z,77.53
2018-10-01T10:20:41.222Z,77.02
2018-10-01T10:21:41.221Z,78.93
2018-10-01T10:22:41.220Z,80.37
2018-10-01T10:23:41.222Z,82.09
2018-10-01T10:24:41.221Z,82.09
2018-10-01T10:25:41.226Z,82.29
2018-10-01T10:26:41.229Z,83.82
2018-10-01T10:27:41.227Z,84.05
2018-10-01T10:28:41.227Z,84.44
2018-10-01T10:29:41.222Z,84.08
2018-10-01T10:30:41.220Z,82.20
2018-10-01T10:31:41.231Z,80.51
2018-10-01T10:32:41.224Z,79.07
2018-10-01T10:33:41.219Z,78.58
2018-10-01T10:34:41.219Z,76.44
2018-10-01T10:35:41.220Z,72.99
2018-10-01T10:36:41.217Z,70.26
2018-10-01T10:37:41.221Z,68.01
2018-10-01T10:38:41.222Z,64.37
2018-10-01T10:39:41.298Z,63.18
2018-10-01T10:40:41.224Z,60.50
2018-10-01T10:41:41.250Z,58.75
2018-10-01T10:42:41.225Z,57.75
2018-10-01T10:43:41.245Z,56.93
2018-10-01T10:44:41.232Z,54.94
2018-10-01T10:45:41.235Z,54.29
2018-10-01T10:46:41.239Z,53.47
2018-10-01T10:47:41.238Z,53.41
2018-10-01T10:48:41.245Z,53.36
2018-10-01T10:49:41.251Z,54.37
2018-10-01T10:50:41.318Z,55.70
2018-10-01T10:51:41.258Z,57.24
2018-10-01T10:52:41.262Z,56.73
2018-10-01T10:53:41.262Z,57.67
2018-10-01T10:54:41.265Z,58.19
2018-10-01T10:55:41.271Z,59.25
2018-10-01T10:56:41.373Z,57.95
2018-10-01T10:57:41.281Z,56.79
2018-10-01T10:58:41.285Z,55.66
2018-10-01T10:59:41.293Z,55.22
2018-10-01T11:00:41.303Z,53.75
2018-10-01T11:01:41.292Z,52.92
2018-10-01T11:02:41.297Z,53.55
2018-10-01T11:03:41.307Z,54.39
2018-10-01T11:04:41.310Z,55.13
2018-10-01T11:05:41.309Z,56.77
2018-10-01T11:06:41.314Z,57.12
2018-10-01T11:07:41.319Z,56.93
2018-10-01T11:08:41.351Z,56.83
2018-10-01T11:09:41.331Z,56.73
2018-10-01T11:10:41.336Z,56.02
2018-10-01T11:11:41.339Z,55.81
2018-10-01T11:12:41.343Z,54.19
2018-10-01T11:13:41.343Z,53.34
2018-10-01T11:14:41.463Z,52.06
2018-10-01T11:15:41.353Z,51.57
2018-10-01T11:16:41.357Z,51.23
2018-10-01T11:17:41.367Z,51.08
2018-10-01T11:18:41.548Z,52.19
2018-10-01T11:19:41.379Z,52.17
2018-10-01T11:20:41.430Z,52.62
2018-10-01T11:21:41.523Z,54.29
2018-10-01T11:22:41.392Z,55.42
2018-10-01T11:23:41.394Z,55.94
2018-10-01T11:24:41.397Z,56.95
2018-10-01T11:25:41.396Z,57.86
2018-10-01T11:26:41.450Z,60.37
2018-10-01T11:27:41.468Z,63.79
2018-10-01T11:28:41.455Z,68.66
2018-10-01T11:29:41.433Z,71.98
2018-10-01T11:30:41.419Z,74.12
2018-10-01T11:31:41.496Z,75.71
2018-10-01T11:32:41.425Z,76.54
2018-10-01T11:33:41.488Z,77.46
2018-10-01T11:34:41.432Z,78.80
2018-10-01T11:35:41.438Z,79.24
2018-10-01T11:36:41.431Z,79.62
2018-10-01T11:37:41.428Z,80.67
2018-10-01T11:38:41.427Z,80.58
2018-10-01T11:39:41.479Z,81.15
2018-10-01T11:40:41.427Z,81.34
2018-10-01T11:41:41.432Z,81.10
2018-10-01T11:42:41.432Z,81.00
2018-10-01T11:43:41.431Z,81.96
2018-10-01T11:44:41.430Z,81.96
2018-10-01T11:45:41.490Z,81.96
2018-10-01T11:46:41.424Z,81.00
2018-10-01T11:47:41.422Z,82.19
2018-10-01T11:48:41.424Z,82.00
2018-10-01T11:49:41.426Z,81.13
2018-10-01T11:50:41.425Z,81.13
2018-10-01T11:51:41.442Z,81.27
2018-10-01T11:52:41.416Z,80.51
2018-10-01T11:53:41.419Z,80.41
2018-10-01T11:54:41.418Z,80.79
2018-10-01T11:55:41.425Z,80.32
2018-10-01T11:56:41.414Z,79.93
2018-10-01T11:57:41.453Z,79.64
2018-10-01T11:58:41.407Z,80.03
2018-10-01T11:59:41.405Z,80.83
2018-10-01T12:00:41.403Z,79.88
2018-10-01T12:01:41.405Z,79.97
2018-10-01T12:02:41.405Z,79.24
2018-10-01T12:03:41.492Z,79.91
2018-10-01T12:04:41.402Z,80.20
2018-10-01T12:05:41.400Z,80.40
2018-10-01T12:06:41.394Z,79.86
2018-10-01T12:07:41.397Z,79.19
2018-10-01T12:08:41.395Z,78.75
2018-10-01T12:09:41.461Z,77.94
2018-10-01T12:10:41.390Z,77.94
2018-10-01T12:11:41.389Z,77.36
2018-10-01T12:12:41.385Z,77.08
2018-10-01T12:13:41.389Z,76.59
2018-10-01T12:14:41.388Z,76.31
2018-10-01T12:15:41.490Z,76.37
2018-10-01T12:16:41.387Z,76.59
2018-10-01T12:17:41.381Z,76.65
2018-10-01T12:18:41.379Z,75.40
2018-10-01T12:19:41.379Z,75.98
2018-10-01T12:20:41.376Z,76.46
2018-10-01T12:21:41.552Z,77.13
2018-10-01T12:22:41.382Z,77.33
2018-10-01T12:23:41.375Z,78.19
2018-10-01T12:24:41.372Z,78.67
2018-10-01T12:25:41.376Z,77.90
2018-10-01T12:26:41.377Z,77.80
2018-10-01T12:27:41.394Z,78.09
2018-10-01T12:28:41.373Z,77.36
2018-10-01T12:29:41.368Z,77.04
2018-10-01T12:30:41.367Z,76.02
2018-10-01T12:31:41.392Z,76.84
2018-10-01T12:32:41.365Z,76.65
2018-10-01T12:33:41.400Z,76.84
2018-10-01T12:34:41.368Z,77.71
2018-10-01T12:35:41.366Z,77.04
2018-10-01T12:36:41.365Z,77.42
2018-10-01T12:37:41.363Z,77.71
2018-10-01T12:38:41.359Z,78.19
2018-10-01T12:39:41.438Z,77.80
2018-10-01T12:40:41.361Z,78.47
2018-10-01T12:41:41.354Z,77.23
2018-10-01T12:42:41.358Z,76.94
2018-10-01T12:43:41.353Z,76.65
2018-10-01T12:44:41.353Z,75.89
2018-10-01T12:45:41.380Z,75.95
2018-10-01T12:46:41.355Z,75.95
2018-10-01T12:47:41.356Z,73.80
2018-10-01T12:48:41.353Z,73.32
2018-10-01T12:49:41.345Z,74.85
2018-10-01T12:50:41.345Z,75.90
2018-10-01T12:51:41.411Z,77.53
2018-10-01T12:52:41.342Z,77.78